Time;durP1;ratioP1;P1;durP2;ratioP2;P2;SDS_P1;SDS_P2;PMS_P1;PMS_P2;Temp;Humidity;BMP_temperature;BMP_pressure;BME280_temperature;BME280_humidity;BME280_pressure;Samples;Min_cycle;Max_cycle;Signal;HPM_P1;HPM_P2
2023/06/11 00:01:40;;;;;;;6.15;5.30;;;;;;;;;;4986833;28;98972;-74
2023/06/11 00:04:06;;;;;;;5.80;5.30;;;;;;;;;;4986049;28;99718;-74
2023/06/11 00:06:33;;;;;;;8.85;5.80;;;;;;;;;;4986922;28;100287;-74
2023/06/11 00:08:59;;;;;;;5.45;4.93;;;;;;;;;;4986269;28;99185;-75
2023/06/11 00:11:26;;;;;;;8.00;5.25;;;;;;;;;;4985569;28;101109;-75
2023/06/11 00:13:53;;;;;;;7.90;5.60;;;;;;;;;;5004947;28;98766;-73
2023/06/11 00:16:20;;;;;;;5.88;5.15;;;;;;;;;;5006701;28;100569;-73
2023/06/11 00:18:47;;;;;;;5.75;5.25;;;;;;;;;;5006037;28;99806;-74
2023/06/11 00:21:14;;;;;;;6.93;5.22;;;;;;;;;;5000016;28;99813;-73
2023/06/11 00:23:40;;;;;;;5.55;5.15;;;;;;;;;;4977268;28;100449;-73
2023/06/11 00:26:07;;;;;;;13.95;6.05;;;;;;;;;;4965843;28;99090;-73
2023/06/11 00:28:34;;;;;;;6.72;4.88;;;;;;;;;;4967068;28;100064;-75
2023/06/11 00:31:01;;;;;;;5.43;4.88;;;;;;;;;;4982752;28;99586;-74
2023/06/11 00:33:27;;;;;;;17.35;5.22;;;;;;;;;;4991868;28;98997;-75
2023/06/11 00:35:53;;;;;;;8.40;5.82;;;;;;;;;;4995231;28;99322;-74
2023/06/11 00:38:20;;;;;;;8.20;5.68;;;;;;;;;;4988527;28;100793;-74
2023/06/11 00:40:47;;;;;;;9.43;5.82;;;;;;;;;;4985872;28;99777;-74
2023/06/11 00:43:13;;;;;;;9.30;5.90;;;;;;;;;;4984447;28;100627;-74
2023/06/11 00:45:41;;;;;;;8.38;5.18;;;;;;;;;;4984843;28;100891;-74
2023/06/11 00:48:07;;;;;;;9.88;6.32;;;;;;;;;;4984076;28;101446;-74
2023/06/11 00:50:44;;;;;;;7.43;5.40;;;;;;;;;;4985130;28;100169;-74
2023/06/11 00:53:12;;;;;;;5.80;5.10;;;;;;;;;;4986032;28;98836;-74
2023/06/11 00:55:39;;;;;;;8.75;5.43;;;;;;;;;;4984217;28;98653;-75
2023/06/11 00:58:13;;;;;;;5.95;5.45;;;;;;;;;;4989171;28;99994;-74
2023/06/11 01:00:42;;;;;;;11.15;6.75;;;;;;;;;;4985323;28;99384;-74
2023/06/11 01:03:10;;;;;;;7.65;5.88;;;;;;;;;;4985658;28;99411;-74
2023/06/11 01:05:43;;;;;;;14.07;5.25;;;;;;;;;;4985930;28;100342;-74
2023/06/11 01:08:12;;;;;;;13.75;5.80;;;;;;;;;;4983435;28;100360;-74
2023/06/11 01:10:41;;;;;;;10.82;5.60;;;;;;;;;;4984741;28;101377;-74
2023/06/11 01:13:08;;;;;;;6.60;5.50;;;;;;;;;;4992980;28;98885;-74
2023/06/11 01:15:34;;;;;;;9.05;5.95;;;;;;;;;;5004366;28;99873;-74
2023/06/11 01:18:08;;;;;;;6.25;5.50;;;;;;;;;;5007756;28;98100;-74
2023/06/11 01:20:50;;;;;;;13.32;5.97;;;;;;;;;;5021504;28;102545;-74
2023/06/11 01:23:29;;;;;;;9.75;5.63;;;;;;;;;;5003506;28;101261;-74
2023/06/11 01:26:05;;;;;;;8.48;6.20;;;;;;;;;;5020042;28;101046;-75
2023/06/11 01:28:33;;;;;;;5.88;5.25;;;;;;;;;;4995669;28;102535;-74
2023/06/11 01:31:06;;;;;;;12.07;6.13;;;;;;;;;;4970258;28;99162;-74
2023/06/11 01:33:35;;;;;;;7.97;6.00;;;;;;;;;;4984547;28;100036;-74
2023/06/11 01:36:05;;;;;;;7.75;6.15;;;;;;;;;;4982910;28;99980;-74
2023/06/11 01:38:41;;;;;;;8.13;5.53;;;;;;;;;;4984119;28;100953;-74
2023/06/11 01:41:14;;;;;;;7.40;5.93;;;;;;;;;;4979404;28;100861;-74
2023/06/11 01:43:41;;;;;;;9.10;6.25;;;;;;;;;;4979360;28;101027;-74
2023/06/11 01:46:08;;;;;;;7.03;5.90;;;;;;;;;;4985069;28;98778;-75
2023/06/11 01:48:35;;;;;;;6.30;5.50;;;;;;;;;;4984054;28;100720;-74
2023/06/11 01:51:02;;;;;;;6.78;5.93;;;;;;;;;;4984121;28;99900;-74
2023/06/11 01:53:28;;;;;;;9.00;5.90;;;;;;;;;;4976576;28;99957;-74
2023/06/11 01:55:58;;;;;;;17.38;5.82;;;;;;;;;;4965678;28;98794;-74
2023/06/11 01:58:24;;;;;;;9.20;6.82;;;;;;;;;;4996854;28;99211;-74
2023/06/11 02:00:51;;;;;;;8.20;6.63;;;;;;;;;;4997073;28;100991;-74
2023/06/11 02:03:17;;;;;;;8.75;6.30;;;;;;;;;;4974617;28;99064;-75
2023/06/11 02:05:44;;;;;;;8.73;6.50;;;;;;;;;;4968962;28;98818;-75
2023/06/11 02:08:10;;;;;;;7.78;6.43;;;;;;;;;;4965982;28;98796;-74
2023/06/11 02:10:37;;;;;;;7.03;6.30;;;;;;;;;;4963440;28;102160;-74
2023/06/11 02:13:04;;;;;;;8.10;7.03;;;;;;;;;;4973625;28;98673;-75
2023/06/11 02:15:30;;;;;;;7.20;6.50;;;;;;;;;;4983534;28;99395;-74
2023/06/11 02:17:56;;;;;;;8.70;6.55;;;;;;;;;;4982811;28;101502;-75
2023/06/11 02:20:23;;;;;;;13.70;6.53;;;;;;;;;;4984925;28;99953;-74
2023/06/11 02:22:50;;;;;;;7.95;7.28;;;;;;;;;;4985400;28;98766;-74
2023/06/11 02:25:16;;;;;;;7.75;7.10;;;;;;;;;;4987726;28;99419;-74
2023/06/11 02:27:43;;;;;;;10.27;7.38;;;;;;;;;;4987429;28;101148;-74
2023/06/11 02:30:10;;;;;;;11.57;7.25;;;;;;;;;;4986847;28;102501;-74
2023/06/11 02:32:36;;;;;;;7.93;7.20;;;;;;;;;;4988260;28;99088;-74
2023/06/11 02:35:03;;;;;;;9.52;6.82;;;;;;;;;;4986852;28;100953;-75
2023/06/11 02:37:29;;;;;;;9.70;7.20;;;;;;;;;;4988099;28;99145;-74
2023/06/11 02:39:56;;;;;;;10.43;7.70;;;;;;;;;;4985528;28;99967;-75
2023/06/11 02:42:22;;;;;;;13.02;7.82;;;;;;;;;;4988423;28;98577;-74
2023/06/11 02:44:49;;;;;;;10.27;7.70;;;;;;;;;;4988358;28;99057;-74
2023/06/11 02:47:15;;;;;;;7.85;7.20;;;;;;;;;;4989336;28;101547;-74
2023/06/11 02:49:43;;;;;;;9.23;8.10;;;;;;;;;;4986923;28;101775;-74
2023/06/11 02:52:10;;;;;;;9.35;8.48;;;;;;;;;;4986733;28;102192;-74
2023/06/11 02:54:36;;;;;;;9.98;8.93;;;;;;;;;;4985478;28;100692;-75
2023/06/11 02:57:03;;;;;;;19.45;8.60;;;;;;;;;;4987058;28;100848;-74
2023/06/11 02:59:29;;;;;;;14.60;8.48;;;;;;;;;;4986325;28;99509;-74
2023/06/11 03:01:55;;;;;;;13.40;8.05;;;;;;;;;;4985588;28;101787;-75
2023/06/11 03:04:22;;;;;;;19.20;8.65;;;;;;;;;;4985841;28;101911;-74
2023/06/11 03:06:49;;;;;;;14.60;9.50;;;;;;;;;;4985857;28;102000;-74
2023/06/11 03:09:16;;;;;;;9.88;8.57;;;;;;;;;;4989557;28;99888;-74
2023/06/11 03:11:42;;;;;;;9.15;8.32;;;;;;;;;;4986211;28;101709;-74
2023/06/11 03:14:08;;;;;;;12.00;8.25;;;;;;;;;;5002529;28;101656;-74
2023/06/11 03:16:35;;;;;;;11.57;8.90;;;;;;;;;;5006086;28;101267;-74
2023/06/11 03:19:02;;;;;;;9.60;8.85;;;;;;;;;;5005872;28;99035;-73
2023/06/11 03:21:28;;;;;;;11.52;9.25;;;;;;;;;;5004987;28;99041;-74
2023/06/11 03:23:55;;;;;;;9.70;8.80;;;;;;;;;;5007621;28;99135;-74
2023/06/11 03:26:22;;;;;;;9.65;8.85;;;;;;;;;;5006272;28;101748;-74
2023/06/11 03:28:48;;;;;;;15.85;9.23;;;;;;;;;;4997056;28;99977;-74
2023/06/11 03:31:17;;;;;;;10.48;8.77;;;;;;;;;;4985833;28;99347;-73
2023/06/11 03:33:45;;;;;;;9.77;8.88;;;;;;;;;;4986236;28;98937;-74
2023/06/11 03:36:14;;;;;;;11.48;9.57;;;;;;;;;;4984754;28;100231;-74
2023/06/11 03:38:40;;;;;;;11.35;9.30;;;;;;;;;;4985652;28;100102;-74
2023/06/11 03:41:09;;;;;;;10.65;9.32;;;;;;;;;;4989029;28;99049;-74
2023/06/11 03:43:36;;;;;;;13.00;9.18;;;;;;;;;;4989456;28;101503;-74
2023/06/11 03:46:03;;;;;;;10.57;8.45;;;;;;;;;;4991098;28;98807;-75
2023/06/11 03:48:30;;;;;;;9.15;8.25;;;;;;;;;;4987202;28;98594;-74
2023/06/11 03:50:57;;;;;;;9.90;8.90;;;;;;;;;;4984536;28;101179;-74
2023/06/11 03:53:23;;;;;;;14.90;8.48;;;;;;;;;;4969895;28;101519;-74
2023/06/11 03:55:50;;;;;;;10.00;9.18;;;;;;;;;;4965383;28;100231;-75
2023/06/11 03:58:16;;;;;;;10.50;9.38;;;;;;;;;;4967289;28;98769;-74
2023/06/11 04:00:43;;;;;;;10.48;8.13;;;;;;;;;;4965889;28;98893;-75
2023/06/11 04:03:10;;;;;;;16.77;8.70;;;;;;;;;;4979878;28;99457;-74
2023/06/11 04:05:37;;;;;;;19.67;8.32;;;;;;;;;;5002611;28;98703;-74
2023/06/11 04:08:04;;;;;;;12.77;8.48;;;;;;;;;;5005104;28;101160;-74
2023/06/11 04:10:31;;;;;;;10.73;8.88;;;;;;;;;;5006168;28;98545;-74
2023/06/11 04:12:58;;;;;;;10.00;8.77;;;;;;;;;;5002252;28;98842;-74
2023/06/11 04:15:24;;;;;;;11.77;8.82;;;;;;;;;;4986996;28;99218;-74
2023/06/11 04:17:51;;;;;;;11.13;7.55;;;;;;;;;;4983927;28;101210;-75
2023/06/11 04:20:18;;;;;;;9.77;8.25;;;;;;;;;;4986261;28;99486;-74
2023/06/11 04:22:45;;;;;;;9.32;7.68;;;;;;;;;;4986838;28;99086;-74
2023/06/11 04:25:12;;;;;;;15.60;8.25;;;;;;;;;;4984473;28;101717;-74
2023/06/11 04:27:39;;;;;;;10.25;8.20;;;;;;;;;;4985333;28;101466;-74
2023/06/11 04:30:09;;;;;;;10.00;8.13;;;;;;;;;;4984523;28;100952;-74
2023/06/11 04:32:40;;;;;;;9.00;8.10;;;;;;;;;;4984548;28;101229;-74
2023/06/11 04:35:07;;;;;;;11.48;8.23;;;;;;;;;;4988419;28;98900;-74
2023/06/11 04:37:40;;;;;;;22.45;8.32;;;;;;;;;;4984838;28;101153;-74
2023/06/11 04:40:13;;;;;;;8.98;7.80;;;;;;;;;;4984204;28;101888;-74
2023/06/11 04:42:40;;;;;;;8.13;7.55;;;;;;;;;;4984587;28;100664;-74
2023/06/11 04:45:09;;;;;;;9.45;7.85;;;;;;;;;;4983858;28;101836;-75
2023/06/11 04:47:38;;;;;;;9.07;8.20;;;;;;;;;;4985096;28;100946;-75
2023/06/11 04:50:05;;;;;;;12.55;7.55;;;;;;;;;;4983415;28;101061;-74
2023/06/11 04:52:34;;;;;;;10.45;8.70;;;;;;;;;;4984103;28;101744;-75
2023/06/11 04:55:03;;;;;;;12.38;8.15;;;;;;;;;;4984226;28;99070;-75
2023/06/11 04:57:32;;;;;;;7.82;7.13;;;;;;;;;;4989389;28;99339;-75
2023/06/11 05:00:00;;;;;;;9.43;7.95;;;;;;;;;;4991477;28;98272;-75
2023/06/11 05:02:28;;;;;;;10.52;8.18;;;;;;;;;;4991440;28;101194;-75
2023/06/11 05:04:57;;;;;;;18.98;8.05;;;;;;;;;;4976636;28;101475;-75
2023/06/11 05:07:24;;;;;;;8.07;7.47;;;;;;;;;;4974452;28;99829;-75
2023/06/11 05:09:51;;;;;;;12.63;8.10;;;;;;;;;;4982867;28;101481;-73
2023/06/11 05:12:17;;;;;;;11.90;8.45;;;;;;;;;;4979307;28;99392;-73
2023/06/11 05:14:44;;;;;;;9.52;8.35;;;;;;;;;;4983169;28;101015;-76
2023/06/11 05:17:10;;;;;;;7.82;7.10;;;;;;;;;;4979996;28;101816;-76
2023/06/11 05:19:37;;;;;;;10.98;7.55;;;;;;;;;;4985479;28;100284;-76
2023/06/11 05:22:05;;;;;;;8.90;8.00;;;;;;;;;;4975076;28;101795;-76
2023/06/11 05:24:31;;;;;;;9.25;8.02;;;;;;;;;;4984990;28;98675;-77
2023/06/11 05:27:01;;;;;;;13.27;7.35;;;;;;;;;;4981728;28;100092;-77
2023/06/11 05:29:31;;;;;;;7.95;7.10;;;;;;;;;;4983969;28;100683;-77
2023/06/11 05:31:57;;;;;;;11.15;7.10;;;;;;;;;;4982898;28;99569;-77
2023/06/11 05:34:25;;;;;;;11.63;6.95;;;;;;;;;;4981325;28;101561;-76
2023/06/11 05:36:54;;;;;;;7.95;7.20;;;;;;;;;;4981752;28;99376;-76
2023/06/11 05:39:21;;;;;;;10.48;7.45;;;;;;;;;;4988658;28;98696;-76
2023/06/11 05:41:47;;;;;;;8.93;8.02;;;;;;;;;;4985157;28;99597;-76
2023/06/11 05:44:17;;;;;;;6.93;6.35;;;;;;;;;;4983871;28;101551;-76
2023/06/11 05:46:45;;;;;;;9.13;7.07;;;;;;;;;;4983669;28;100812;-76
2023/06/11 05:49:13;;;;;;;10.00;7.47;;;;;;;;;;4983703;28;100611;-76
2023/06/11 05:51:40;;;;;;;7.28;6.55;;;;;;;;;;4985599;28;99823;-77
2023/06/11 05:54:10;;;;;;;9.77;7.03;;;;;;;;;;4977566;28;99048;-76
2023/06/11 05:56:38;;;;;;;8.05;6.38;;;;;;;;;;4963425;28;102726;-76
2023/06/11 05:59:06;;;;;;;9.27;6.20;;;;;;;;;;4965555;28;98770;-76
2023/06/11 06:01:34;;;;;;;6.22;5.63;;;;;;;;;;4969315;28;100817;-77
2023/06/11 06:04:03;;;;;;;8.18;5.93;;;;;;;;;;4966516;28;99121;-76
2023/06/11 06:06:30;;;;;;;6.05;5.55;;;;;;;;;;4967629;28;98807;-77
2023/06/11 06:08:58;;;;;;;7.00;5.55;;;;;;;;;;4966994;28;101148;-76
2023/06/11 06:11:25;;;;;;;7.78;6.18;;;;;;;;;;4966989;28;100170;-77
2023/06/11 06:13:53;;;;;;;6.78;5.47;;;;;;;;;;4983077;28;99560;-77
2023/06/11 06:16:19;;;;;;;16.10;6.15;;;;;;;;;;4986983;28;101987;-77
2023/06/11 06:18:47;;;;;;;8.30;5.75;;;;;;;;;;4986523;28;101265;-77
2023/06/11 06:21:13;;;;;;;12.73;5.95;;;;;;;;;;4987645;28;99283;-77
2023/06/11 06:23:40;;;;;;;11.60;5.65;;;;;;;;;;4989940;28;101450;-77
2023/06/11 06:26:12;;;;;;;6.22;5.63;;;;;;;;;;4986884;28;102567;-75
2023/06/11 06:28:39;;;;;;;8.55;5.80;;;;;;;;;;4988616;28;99547;-75
2023/06/11 06:31:07;;;;;;;9.65;5.80;;;;;;;;;;4985890;28;100488;-74
2023/06/11 06:33:37;;;;;;;9.10;6.32;;;;;;;;;;4987185;28;99734;-76
2023/06/11 06:36:05;;;;;;;6.15;5.63;;;;;;;;;;5002795;28;101368;-75
2023/06/11 06:38:32;;;;;;;8.35;5.95;;;;;;;;;;4986878;28;102469;-75
2023/06/11 06:40:59;;;;;;;8.98;5.38;;;;;;;;;;4986773;28;98705;-76
2023/06/11 06:43:26;;;;;;;8.07;5.72;;;;;;;;;;4986788;28;101802;-76
2023/06/11 06:45:55;;;;;;;6.78;5.50;;;;;;;;;;4990600;28;100578;-75
2023/06/11 06:48:28;;;;;;;7.53;5.28;;;;;;;;;;4986973;28;101601;-75
2023/06/11 06:50:56;;;;;;;9.27;5.38;;;;;;;;;;4986553;28;98963;-75
2023/06/11 06:53:23;;;;;;;10.43;5.30;;;;;;;;;;4986109;28;99004;-76
2023/06/11 06:55:49;;;;;;;6.40;4.93;;;;;;;;;;4986753;28;100672;-76
2023/06/11 06:58:18;;;;;;;6.63;4.85;;;;;;;;;;4983272;28;101664;-76
2023/06/11 07:00:45;;;;;;;11.98;4.95;;;;;;;;;;4968211;28;98930;-75
2023/06/11 07:03:16;;;;;;;10.93;5.03;;;;;;;;;;4972389;28;101059;-75
2023/06/11 07:05:43;;;;;;;14.13;5.30;;;;;;;;;;4986053;28;101058;-76
2023/06/11 07:08:12;;;;;;;11.88;5.47;;;;;;;;;;4989794;28;99484;-75
2023/06/11 07:10:48;;;;;;;8.13;5.00;;;;;;;;;;4985816;28;100159;-75
2023/06/11 07:13:15;;;;;;;6.00;5.35;;;;;;;;;;4984319;28;100764;-75
2023/06/11 07:15:43;;;;;;;7.10;4.95;;;;;;;;;;4986118;28;99124;-75
2023/06/11 07:18:10;;;;;;;12.50;5.15;;;;;;;;;;4970559;28;101123;-75
2023/06/11 07:20:36;;;;;;;7.93;5.20;;;;;;;;;;4965900;28;100765;-75
2023/06/11 07:23:03;;;;;;;8.18;4.82;;;;;;;;;;4969668;28;99384;-75
2023/06/11 07:25:31;;;;;;;5.72;4.80;;;;;;;;;;4986325;28;101712;-75
2023/06/11 07:27:59;;;;;;;12.27;5.13;;;;;;;;;;4988891;28;98905;-75
2023/06/11 07:30:28;;;;;;;7.63;4.80;;;;;;;;;;4984090;28;99261;-75
2023/06/11 07:32:54;;;;;;;6.68;4.88;;;;;;;;;;4974836;28;101675;-75
2023/06/11 07:35:21;;;;;;;7.50;4.53;;;;;;;;;;4984707;28;102558;-75
2023/06/11 07:37:48;;;;;;;8.25;4.55;;;;;;;;;;4971377;28;100489;-75
2023/06/11 07:40:15;;;;;;;10.07;4.35;;;;;;;;;;4965791;28;99132;-75
2023/06/11 07:42:42;;;;;;;7.15;4.80;;;;;;;;;;4965645;28;99281;-76
2023/06/11 07:45:09;;;;;;;8.05;4.25;;;;;;;;;;4965692;28;101824;-76
2023/06/11 07:47:36;;;;;;;4.90;4.32;;;;;;;;;;4966257;28;100725;-75
2023/06/11 07:50:03;;;;;;;5.18;4.50;;;;;;;;;;4982889;28;100196;-75
2023/06/11 07:52:29;;;;;;;6.50;4.50;;;;;;;;;;4986403;28;101697;-76
2023/06/11 07:55:04;;;;;;;6.13;4.32;;;;;;;;;;4984787;28;99299;-76
2023/06/11 07:57:30;;;;;;;7.85;4.57;;;;;;;;;;4986867;28;99053;-76
2023/06/11 07:59:57;;;;;;;4.82;4.38;;;;;;;;;;4986353;28;99384;-75
2023/06/11 08:02:23;;;;;;;5.15;4.63;;;;;;;;;;4985894;28;99436;-74
2023/06/11 08:04:50;;;;;;;7.55;4.68;;;;;;;;;;4986203;28;99079;-75
2023/06/11 08:07:17;;;;;;;5.28;4.55;;;;;;;;;;4986432;28;100150;-75
2023/06/11 08:09:43;;;;;;;6.10;4.93;;;;;;;;;;4985817;28;99454;-74
2023/06/11 08:12:11;;;;;;;4.65;4.35;;;;;;;;;;4989664;28;100043;-75
2023/06/11 08:14:38;;;;;;;5.72;4.47;;;;;;;;;;4986713;28;100421;-74
2023/06/11 08:17:04;;;;;;;8.32;4.40;;;;;;;;;;4985633;28;99251;-75
2023/06/11 08:19:31;;;;;;;6.53;4.15;;;;;;;;;;4986000;28;98832;-75
2023/06/11 08:21:59;;;;;;;8.93;4.20;;;;;;;;;;4986245;28;100254;-75
2023/06/11 08:24:26;;;;;;;5.32;4.25;;;;;;;;;;4985112;28;99903;-75
2023/06/11 08:26:52;;;;;;;5.32;4.80;;;;;;;;;;4986179;28;100148;-75
2023/06/11 08:29:20;;;;;;;6.40;4.50;;;;;;;;;;4986005;28;99794;-75
2023/06/11 08:31:46;;;;;;;5.72;4.47;;;;;;;;;;4971007;28;100128;-75
2023/06/11 08:34:13;;;;;;;6.30;4.15;;;;;;;;;;4969891;28;99127;-74
2023/06/11 08:36:40;;;;;;;4.97;4.20;;;;;;;;;;4964692;28;99003;-74
2023/06/11 08:39:07;;;;;;;4.80;4.40;;;;;;;;;;4963334;28;99467;-74
2023/06/11 08:41:33;;;;;;;9.48;4.60;;;;;;;;;;4965458;28;100122;-74
2023/06/11 08:44:00;;;;;;;4.22;3.90;;;;;;;;;;4966199;28;99923;-74
2023/06/11 08:46:27;;;;;;;7.57;4.30;;;;;;;;;;4965359;28;99835;-75
2023/06/11 08:49:00;;;;;;;5.80;4.05;;;;;;;;;;4965524;28;100920;-75
2023/06/11 08:51:30;;;;;;;7.07;4.47;;;;;;;;;;4980991;28;99025;-75
2023/06/11 08:53:56;;;;;;;6.60;4.32;;;;;;;;;;4985297;28;99138;-75
2023/06/11 08:56:24;;;;;;;5.95;4.20;;;;;;;;;;4989608;28;100680;-74
2023/06/11 08:58:52;;;;;;;5.18;4.47;;;;;;;;;;4985572;28;99066;-74
2023/06/11 09:01:21;;;;;;;4.13;3.83;;;;;;;;;;4985788;28;99580;-75
2023/06/11 09:03:48;;;;;;;5.13;4.60;;;;;;;;;;4965753;28;98835;-75
2023/06/11 09:06:14;;;;;;;5.28;4.78;;;;;;;;;;4972430;28;99186;-75
2023/06/11 09:08:41;;;;;;;9.35;4.65;;;;;;;;;;4986158;28;99458;-75
2023/06/11 09:11:07;;;;;;;4.07;3.80;;;;;;;;;;4985569;28;99457;-75
2023/06/11 09:13:33;;;;;;;8.90;4.47;;;;;;;;;;4984372;28;100483;-75
2023/06/11 09:16:00;;;;;;;10.00;4.43;;;;;;;;;;4985118;28;100186;-75
2023/06/11 09:18:27;;;;;;;7.93;4.50;;;;;;;;;;4988538;28;99408;-75
2023/06/11 09:20:55;;;;;;;5.93;4.20;;;;;;;;;;4985180;28;100183;-74
2023/06/11 09:23:31;;;;;;;10.30;4.68;;;;;;;;;;4985376;28;98945;-75
2023/06/11 09:25:59;;;;;;;8.98;4.15;;;;;;;;;;4985878;28;99173;-75
2023/06/11 09:28:32;;;;;;;5.22;4.30;;;;;;;;;;4984829;28;99552;-75
2023/06/11 09:30:59;;;;;;;10.43;4.30;;;;;;;;;;4986618;28;99102;-75
2023/06/11 09:33:27;;;;;;;6.90;4.68;;;;;;;;;;4987290;28;99156;-75
2023/06/11 09:35:53;;;;;;;4.97;3.92;;;;;;;;;;4991473;28;100016;-74
2023/06/11 09:38:20;;;;;;;9.65;4.43;;;;;;;;;;4995656;28;100707;-74
2023/06/11 09:40:47;;;;;;;4.85;4.38;;;;;;;;;;4991668;28;100050;-75
2023/06/11 09:43:14;;;;;;;5.10;4.28;;;;;;;;;;4991726;28;100122;-74
2023/06/11 09:45:41;;;;;;;10.18;4.40;;;;;;;;;;4992439;28;100352;-74
2023/06/11 09:48:09;;;;;;;4.25;3.85;;;;;;;;;;4991111;28;100858;-74
2023/06/11 09:50:36;;;;;;;5.20;4.10;;;;;;;;;;4991681;28;99612;-74
2023/06/11 09:53:03;;;;;;;9.95;4.80;;;;;;;;;;4981501;28;99185;-75
2023/06/11 09:55:35;;;;;;;6.18;3.72;;;;;;;;;;4984655;28;99537;-74
2023/06/11 09:58:02;;;;;;;5.55;4.10;;;;;;;;;;4990583;28;99053;-74
2023/06/11 10:00:29;;;;;;;4.43;3.80;;;;;;;;;;4975429;28;99147;-74
2023/06/11 10:02:57;;;;;;;6.10;4.05;;;;;;;;;;4970657;28;99320;-74
2023/06/11 10:05:24;;;;;;;6.88;4.18;;;;;;;;;;4971947;28;100696;-74
2023/06/11 10:07:58;;;;;;;5.60;4.25;;;;;;;;;;4972322;28;99468;-75
2023/06/11 10:10:25;;;;;;;10.77;3.65;;;;;;;;;;4973986;28;99978;-75
2023/06/11 10:12:52;;;;;;;4.57;3.60;;;;;;;;;;4991541;28;100235;-74
2023/06/11 10:15:22;;;;;;;6.38;3.60;;;;;;;;;;4991256;28;99166;-74
2023/06/11 10:17:49;;;;;;;5.20;3.40;;;;;;;;;;4977875;28;100226;-74
2023/06/11 10:20:20;;;;;;;4.63;3.88;;;;;;;;;;4988618;28;99461;-74
2023/06/11 10:22:46;;;;;;;5.13;3.83;;;;;;;;;;4989979;28;99534;-74
2023/06/11 10:25:13;;;;;;;4.68;3.80;;;;;;;;;;4971423;28;98910;-75
2023/06/11 10:27:43;;;;;;;4.05;3.65;;;;;;;;;;4971481;28;101257;-73
2023/06/11 10:30:10;;;;;;;5.40;3.78;;;;;;;;;;4970605;28;100031;-73
2023/06/11 10:32:46;;;;;;;4.10;3.80;;;;;;;;;;4981731;28;100045;-74
2023/06/11 10:35:20;;;;;;;4.38;3.97;;;;;;;;;;4991072;28;99180;-73
2023/06/11 10:37:47;;;;;;;10.75;4.18;;;;;;;;;;4990505;28;98992;-74
2023/06/11 10:40:14;;;;;;;8.48;3.95;;;;;;;;;;4990856;28;100025;-75
2023/06/11 10:42:50;;;;;;;4.72;4.18;;;;;;;;;;4991722;28;100656;-74
2023/06/11 10:45:17;;;;;;;4.65;3.70;;;;;;;;;;4993999;28;99076;-74
2023/06/11 10:47:47;;;;;;;4.47;4.05;;;;;;;;;;4989555;28;100296;-74
2023/06/11 10:50:15;;;;;;;3.42;3.22;;;;;;;;;;4987284;28;99184;-74
2023/06/11 10:52:51;;;;;;;4.40;3.70;;;;;;;;;;4974767;28;100590;-74
2023/06/11 10:55:20;;;;;;;6.35;3.85;;;;;;;;;;4968071;28;99303;-73
2023/06/11 10:57:50;;;;;;;4.20;3.80;;;;;;;;;;4967627;28;99793;-74
2023/06/11 11:00:16;;;;;;;6.68;3.88;;;;;;;;;;4967510;28;100028;-74
2023/06/11 11:02:43;;;;;;;4.93;3.50;;;;;;;;;;4985571;28;100273;-74
2023/06/11 11:05:10;;;;;;;4.85;3.75;;;;;;;;;;4986666;28;100215;-77
2023/06/11 11:07:37;;;;;;;6.05;3.70;;;;;;;;;;4990860;28;99011;-74
2023/06/11 11:10:05;;;;;;;11.30;4.20;;;;;;;;;;4987563;28;98911;-74
2023/06/11 11:12:39;;;;;;;9.02;3.80;;;;;;;;;;4986693;28;99454;-73
2023/06/11 11:15:06;;;;;;;9.27;3.92;;;;;;;;;;4970581;28;99207;-73
2023/06/11 11:17:32;;;;;;;7.45;4.07;;;;;;;;;;4966718;28;99284;-73
2023/06/11 11:19:59;;;;;;;3.80;3.50;;;;;;;;;;4966689;28;100620;-73
2023/06/11 11:22:26;;;;;;;6.93;4.43;;;;;;;;;;4971098;28;99314;-74
2023/06/11 11:24:53;;;;;;;6.47;4.40;;;;;;;;;;4984460;28;99122;-73
2023/06/11 11:27:23;;;;;;;7.60;4.35;;;;;;;;;;4986448;28;100413;-72
2023/06/11 11:29:50;;;;;;;8.52;6.47;;;;;;;;;;4973750;28;100372;-73
2023/06/11 11:32:17;;;;;;;6.15;5.03;;;;;;;;;;4983777;28;100012;-73
2023/06/11 11:34:43;;;;;;;6.80;4.43;;;;;;;;;;4967107;28;99365;-72
2023/06/11 11:37:11;;;;;;;7.28;4.30;;;;;;;;;;4966925;28;100455;-73
2023/06/11 11:39:37;;;;;;;4.10;3.28;;;;;;;;;;4967323;28;100156;-73
2023/06/11 11:42:07;;;;;;;5.95;3.40;;;;;;;;;;4965996;28;100907;-72
2023/06/11 11:44:38;;;;;;;5.75;3.67;;;;;;;;;;4967356;28;99893;-73
2023/06/11 11:47:07;;;;;;;3.90;3.70;;;;;;;;;;4966379;28;98950;-73
2023/06/11 11:49:34;;;;;;;3.83;3.63;;;;;;;;;;4970154;28;100808;-74
2023/06/11 11:52:00;;;;;;;5.38;4.05;;;;;;;;;;4974186;28;99974;-74
2023/06/11 11:54:27;;;;;;;5.82;4.03;;;;;;;;;;4986325;28;99287;-73
2023/06/11 11:56:57;;;;;;;4.35;4.05;;;;;;;;;;4986787;28;98921;-72
2023/06/11 11:59:23;;;;;;;7.43;3.80;;;;;;;;;;4986267;28;99352;-72
2023/06/11 12:01:54;;;;;;;3.40;3.10;;;;;;;;;;4984587;28;100434;-75
2023/06/11 12:04:22;;;;;;;5.88;3.42;;;;;;;;;;4966964;28;100215;-75
2023/06/11 12:06:48;;;;;;;3.90;3.05;;;;;;;;;;4966474;28;99721;-74
2023/06/11 12:09:15;;;;;;;5.47;3.30;;;;;;;;;;4965984;28;100172;-74
2023/06/11 12:11:42;;;;;;;4.45;3.53;;;;;;;;;;4970211;28;99907;-74
2023/06/11 12:14:28;;;;;;;5.45;3.30;;;;;;;;;;4966859;28;100378;-74
2023/06/11 12:16:54;;;;;;;5.30;3.25;;;;;;;;;;4969867;28;100005;-73
2023/06/11 12:19:21;;;;;;;3.80;3.50;;;;;;;;;;4986588;28;100306;-72
2023/06/11 12:21:51;;;;;;;12.27;3.33;;;;;;;;;;4986662;28;99387;-73
2023/06/11 12:24:17;;;;;;;4.90;3.58;;;;;;;;;;4985642;28;99280;-73
2023/06/11 12:26:47;;;;;;;3.47;3.08;;;;;;;;;;4986355;28;99192;-73
2023/06/11 12:29:14;;;;;;;3.92;3.30;;;;;;;;;;4985341;28;99337;-73
2023/06/11 12:31:41;;;;;;;5.38;3.30;;;;;;;;;;4986215;28;100140;-73
2023/06/11 12:34:09;;;;;;;3.67;3.38;;;;;;;;;;4989362;28;100786;-73
2023/06/11 12:36:36;;;;;;;3.28;3.00;;;;;;;;;;4984818;28;99010;-73
2023/06/11 12:39:04;;;;;;;8.05;3.25;;;;;;;;;;4986184;28;99784;-73
2023/06/11 12:41:31;;;;;;;4.60;3.30;;;;;;;;;;4986325;28;100351;-73
2023/06/11 12:43:58;;;;;;;4.05;3.38;;;;;;;;;;4974857;28;99905;-73
2023/06/11 12:46:26;;;;;;;4.25;2.75;;;;;;;;;;4979774;28;100041;-73
2023/06/11 12:48:53;;;;;;;7.22;3.45;;;;;;;;;;4985848;28;98943;-73
2023/06/11 12:51:20;;;;;;;7.28;3.13;;;;;;;;;;4965091;28;100031;-74
2023/06/11 12:53:46;;;;;;;3.55;3.25;;;;;;;;;;4981075;28;100410;-72
2023/06/11 12:56:13;;;;;;;6.30;3.10;;;;;;;;;;4971501;28;99875;-72
2023/06/11 12:58:43;;;;;;;9.57;3.30;;;;;;;;;;4985110;28;100044;-73
2023/06/11 13:01:09;;;;;;;4.40;3.50;;;;;;;;;;4975356;28;99829;-73
2023/06/11 13:03:36;;;;;;;3.63;3.10;;;;;;;;;;4966347;28;99946;-73
2023/06/11 13:06:02;;;;;;;3.17;2.70;;;;;;;;;;4965626;28;100180;-73
2023/06/11 13:08:30;;;;;;;4.72;3.20;;;;;;;;;;4986190;28;99147;-73
2023/06/11 13:10:58;;;;;;;4.05;3.40;;;;;;;;;;4983949;28;98557;-73
2023/06/11 13:13:24;;;;;;;6.95;3.50;;;;;;;;;;4985376;28;99426;-73
2023/06/11 13:15:50;;;;;;;5.25;3.13;;;;;;;;;;4985871;28;100078;-73
2023/06/11 13:18:17;;;;;;;2.85;2.65;;;;;;;;;;4988381;28;98954;-73
2023/06/11 13:20:43;;;;;;;3.42;2.85;;;;;;;;;;4984384;28;99974;-73
2023/06/11 13:23:15;;;;;;;3.80;2.85;;;;;;;;;;4969784;28;100143;-73
2023/06/11 13:25:42;;;;;;;3.65;3.35;;;;;;;;;;4984382;28;98902;-73
2023/06/11 13:28:08;;;;;;;5.25;3.13;;;;;;;;;;4976221;28;99516;-73
2023/06/11 13:30:35;;;;;;;5.30;2.95;;;;;;;;;;4965867;28;99459;-74
2023/06/11 13:33:01;;;;;;;6.57;3.35;;;;;;;;;;4966842;28;99161;-73
2023/06/11 13:35:28;;;;;;;3.40;3.00;;;;;;;;;;4985453;28;99477;-73
2023/06/11 13:37:55;;;;;;;3.10;2.90;;;;;;;;;;4984882;28;100948;-73
2023/06/11 13:40:21;;;;;;;3.10;2.90;;;;;;;;;;4988074;28;99430;-73
2023/06/11 13:42:48;;;;;;;4.43;3.20;;;;;;;;;;4985083;28;99660;-74
2023/06/11 13:45:14;;;;;;;3.60;3.30;;;;;;;;;;4983106;28;99336;-73
2023/06/11 13:47:41;;;;;;;3.50;3.30;;;;;;;;;;4964775;28;100329;-74
2023/06/11 13:50:07;;;;;;;7.88;3.70;;;;;;;;;;4965470;28;98936;-74
2023/06/11 13:52:34;;;;;;;3.45;3.20;;;;;;;;;;4965553;28;99842;-74
2023/06/11 13:55:00;;;;;;;5.47;2.95;;;;;;;;;;4964415;28;100350;-74
2023/06/11 13:57:27;;;;;;;6.85;3.47;;;;;;;;;;4965535;28;99839;-73
2023/06/11 13:59:54;;;;;;;3.70;3.38;;;;;;;;;;4982815;28;99969;-73
2023/06/11 14:02:21;;;;;;;3.40;3.20;;;;;;;;;;4985082;28;99135;-73
2023/06/11 14:04:50;;;;;;;3.50;3.17;;;;;;;;;;4985375;28;99071;-74
2023/06/11 14:07:16;;;;;;;3.40;3.03;;;;;;;;;;4984820;28;100417;-74
2023/06/11 14:09:43;;;;;;;4.85;3.20;;;;;;;;;;4967233;28;99696;-74
2023/06/11 14:12:09;;;;;;;3.45;2.90;;;;;;;;;;4984706;28;99658;-73
2023/06/11 14:14:36;;;;;;;4.05;3.20;;;;;;;;;;4978309;28;99394;-74
2023/06/11 14:17:04;;;;;;;3.40;3.08;;;;;;;;;;4964687;28;99078;-73
2023/06/11 14:19:31;;;;;;;3.20;2.97;;;;;;;;;;4965120;28;99809;-74
2023/06/11 14:21:58;;;;;;;3.60;3.30;;;;;;;;;;4968214;28;99484;-74
2023/06/11 14:24:24;;;;;;;3.53;3.17;;;;;;;;;;4981886;28;98930;-74
2023/06/11 14:26:53;;;;;;;5.60;3.70;;;;;;;;;;4989000;28;98504;-74
2023/06/11 14:29:20;;;;;;;4.10;3.45;;;;;;;;;;4985701;28;100893;-72
2023/06/11 14:31:47;;;;;;;3.85;3.28;;;;;;;;;;4984874;28;99825;-73
2023/06/11 14:34:13;;;;;;;5.03;3.35;;;;;;;;;;4979215;28;100172;-74
2023/06/11 14:36:40;;;;;;;3.65;3.45;;;;;;;;;;4983971;28;100019;-73